sensor_id;sensor_type;location;lat;lon;timestamp;pressure;altitude;pressure_sealevel;temperature;humidity
68758;BME280;55747;51.998;4.466;2023-02-23T00:02:09;56773.50;;;-144.48;100.00
68758;BME280;55747;51.998;4.466;2023-02-23T00:04:38;56790.03;;;-144.48;100.00
68758;BME280;55747;51.998;4.466;2023-02-23T00:07:11;56796.25;;;-144.48;100.00
68758;BME280;55747;51.998;4.466;2023-02-23T00:09:49;56775.56;;;-144.48;100.00
68758;BME280;55747;51.998;4.466;2023-02-23T00:12:35;56792.09;;;-144.48;100.00
68758;BME280;55747;51.998;4.466;2023-02-23T00:15:08;56796.25;;;-144.48;100.00
68758;BME280;55747;51.998;4.466;2023-02-23T00:17:34;56794.19;;;-144.48;100.00
68758;BME280;55747;51.998;4.466;2023-02-23T00:20:06;56785.91;;;-144.48;100.00
68758;BME280;55747;51.998;4.466;2023-02-23T00:22:40;56750.75;;;-144.48;100.00
68758;BME280;55747;51.998;4.466;2023-02-23T00:28:19;56773.50;;;-144.48;100.00
68758;BME280;55747;51.998;4.466;2023-02-23T00:31:00;56759.03;;;-144.48;100.00
68758;BME280;55747;51.998;4.466;2023-02-23T00:33:37;56773.50;;;-144.48;100.00
68758;BME280;55747;51.998;4.466;2023-02-23T00:36:27;56798.31;;;-144.48;100.00
68758;BME280;55747;51.998;4.466;2023-02-23T00:39:10;56779.72;;;-144.48;100.00
68758;BME280;55747;51.998;4.466;2023-02-23T00:42:14;56775.56;;;-144.48;100.00
68758;BME280;55747;51.998;4.466;2023-02-23T00:45:10;56771.44;;;-144.48;100.00
68758;BME280;55747;51.998;4.466;2023-02-23T00:47:58;56796.25;;;-144.48;100.00
68758;BME280;55747;51.998;4.466;2023-02-23T00:51:37;56783.84;;;-144.48;100.00
68758;BME280;55747;51.998;4.466;2023-02-23T00:57:26;56785.91;;;-144.48;100.00
68758;BME280;55747;51.998;4.466;2023-02-23T01:00:20;56787.97;;;-144.48;100.00
68758;BME280;55747;51.998;4.466;2023-02-23T01:02:58;56800.38;;;-144.48;100.00
68758;BME280;55747;51.998;4.466;2023-02-23T01:05:33;56808.66;;;-144.48;100.00
68758;BME280;55747;51.998;4.466;2023-02-23T01:08:10;56798.31;;;-144.48;100.00
68758;BME280;55747;51.998;4.466;2023-02-23T01:10:54;56787.97;;;-144.48;100.00
68758;BME280;55747;51.998;4.466;2023-02-23T01:13:30;56763.16;;;-144.48;100.00
68758;BME280;55747;51.998;4.466;2023-02-23T01:15:58;56787.97;;;-144.48;100.00
68758;BME280;55747;51.998;4.466;2023-02-23T01:18:25;56800.38;;;-144.48;100.00
68758;BME280;55747;51.998;4.466;2023-02-23T01:21:12;56792.09;;;-144.48;100.00
68758;BME280;55747;51.998;4.466;2023-02-23T01:24:01;56806.59;;;-144.48;100.00
68758;BME280;55747;51.998;4.466;2023-02-23T01:26:31;56765.22;;;-144.48;100.00
68758;BME280;55747;51.998;4.466;2023-02-23T01:32:29;56785.91;;;-144.48;100.00
68758;BME280;55747;51.998;4.466;2023-02-23T01:35:19;56798.31;;;-144.48;100.00
68758;BME280;55747;51.998;4.466;2023-02-23T01:37:50;56781.78;;;-144.48;100.00
68758;BME280;55747;51.998;4.466;2023-02-23T01:40:28;56767.31;;;-144.48;100.00
68758;BME280;55747;51.998;4.466;2023-02-23T01:43:24;56742.50;;;-144.48;100.00
68758;BME280;55747;51.998;4.466;2023-02-23T01:46:19;56794.19;;;-144.48;100.00
68758;BME280;55747;51.998;4.466;2023-02-23T01:49:01;56802.44;;;-144.48;100.00
68758;BME280;55747;51.998;4.466;2023-02-23T01:52:09;56777.63;;;-144.48;100.00
68758;BME280;55747;51.998;4.466;2023-02-23T01:54:59;56794.19;;;-144.48;100.00
68758;BME280;55747;51.998;4.466;2023-02-23T02:00:15;56790.03;;;-144.48;100.00
68758;BME280;55747;51.998;4.466;2023-02-23T02:02:44;56777.63;;;-144.48;100.00
68758;BME280;55747;51.998;4.466;2023-02-23T02:05:18;56767.31;;;-144.48;100.00
68758;BME280;55747;51.998;4.466;2023-02-23T02:07:54;56787.97;;;-144.48;100.00
68758;BME280;55747;51.998;4.466;2023-02-23T02:10:41;56796.25;;;-144.48;100.00
68758;BME280;55747;51.998;4.466;2023-02-23T02:13:46;56773.50;;;-144.48;100.00
68758;BME280;55747;51.998;4.466;2023-02-23T02:33:04;56785.91;;;-144.48;100.00
68758;BME280;55747;51.998;4.466;2023-02-23T02:41:41;56798.31;;;-144.48;100.00
68758;BME280;55747;51.998;4.466;2023-02-23T02:53:16;56744.56;;;-144.48;100.00
68758;BME280;55747;51.998;4.466;2023-02-23T02:55:56;56779.72;;;-144.48;100.00
68758;BME280;55747;51.998;4.466;2023-02-23T02:58:31;56787.97;;;-144.48;100.00
68758;BME280;55747;51.998;4.466;2023-02-23T03:01:12;56767.31;;;-144.48;100.00
68758;BME280;55747;51.998;4.466;2023-02-23T03:04:17;56790.03;;;-144.48;100.00
68758;BME280;55747;51.998;4.466;2023-02-23T03:13:26;56775.56;;;-144.48;100.00
68758;BME280;55747;51.998;4.466;2023-02-23T03:16:46;56794.19;;;-144.48;100.00
68758;BME280;55747;51.998;4.466;2023-02-23T03:19:53;56777.63;;;-144.48;100.00
68758;BME280;55747;51.998;4.466;2023-02-23T03:26:13;56802.44;;;-144.48;100.00
68758;BME280;55747;51.998;4.466;2023-02-23T03:29:18;56769.38;;;-144.48;100.00
68758;BME280;55747;51.998;4.466;2023-02-23T03:38:31;56787.97;;;-144.48;100.00
68758;BME280;55747;51.998;4.466;2023-02-23T03:41:25;56802.44;;;-144.48;100.00
68758;BME280;55747;51.998;4.466;2023-02-23T03:44:23;56777.63;;;-144.48;100.00
68758;BME280;55747;51.998;4.466;2023-02-23T03:47:14;56796.25;;;-144.48;100.00
68758;BME280;55747;51.998;4.466;2023-02-23T03:50:17;56781.78;;;-144.48;100.00
68758;BME280;55747;51.998;4.466;2023-02-23T03:53:06;56759.03;;;-144.48;100.00
68758;BME280;55747;51.998;4.466;2023-02-23T03:55:54;56779.72;;;-144.48;100.00
68758;BME280;55747;51.998;4.466;2023-02-23T03:58:50;56800.38;;;-144.48;100.00
68758;BME280;55747;51.998;4.466;2023-02-23T04:01:47;56798.31;;;-144.48;100.00
68758;BME280;55747;51.998;4.466;2023-02-23T04:04:59;56779.72;;;-144.48;100.00
68758;BME280;55747;51.998;4.466;2023-02-23T04:08:02;56773.50;;;-144.48;100.00
68758;BME280;55747;51.998;4.466;2023-02-23T04:10:57;56775.56;;;-144.48;100.00
68758;BME280;55747;51.998;4.466;2023-02-23T04:13:48;56779.72;;;-144.48;100.00
68758;BME280;55747;51.998;4.466;2023-02-23T04:16:29;56796.25;;;-144.48;100.00
68758;BME280;55747;51.998;4.466;2023-02-23T04:19:05;56779.72;;;-144.48;100.00
68758;BME280;55747;51.998;4.466;2023-02-23T04:21:38;56785.91;;;-144.48;100.00
68758;BME280;55747;51.998;4.466;2023-02-23T04:24:06;56775.56;;;-144.48;100.00
68758;BME280;55747;51.998;4.466;2023-02-23T04:26:31;56796.25;;;-144.48;100.00
68758;BME280;55747;51.998;4.466;2023-02-23T04:28:57;56781.78;;;-144.48;100.00
68758;BME280;55747;51.998;4.466;2023-02-23T04:31:38;56821.06;;;-144.48;100.00
68758;BME280;55747;51.998;4.466;2023-02-23T04:34:06;56740.41;;;-144.48;100.00
68758;BME280;55747;51.998;4.466;2023-02-23T04:36:58;56740.41;;;-144.48;100.00
68758;BME280;55747;51.998;4.466;2023-02-23T04:39:46;56794.19;;;-144.48;100.00
68758;BME280;55747;51.998;4.466;2023-02-23T04:44:53;56763.16;;;-144.48;100.00
68758;BME280;55747;51.998;4.466;2023-02-23T04:47:40;56794.19;;;-144.48;100.00
68758;BME280;55747;51.998;4.466;2023-02-23T04:50:40;56777.63;;;-144.48;100.00
68758;BME280;55747;51.998;4.466;2023-02-23T04:53:20;56771.44;;;-144.48;100.00
68758;BME280;55747;51.998;4.466;2023-02-23T04:56:04;56771.44;;;-144.48;100.00
68758;BME280;55747;51.998;4.466;2023-02-23T04:58:47;56800.38;;;-144.48;100.00
68758;BME280;55747;51.998;4.466;2023-02-23T05:01:32;56794.19;;;-144.48;100.00
68758;BME280;55747;51.998;4.466;2023-02-23T05:04:14;56804.50;;;-144.48;100.00
68758;BME280;55747;51.998;4.466;2023-02-23T05:07:15;56779.72;;;-144.48;100.00
68758;BME280;55747;51.998;4.466;2023-02-23T05:09:54;56794.19;;;-144.48;100.00
68758;BME280;55747;51.998;4.466;2023-02-23T05:12:49;56777.63;;;-144.48;100.00
68758;BME280;55747;51.998;4.466;2023-02-23T05:15:40;56800.38;;;-144.48;100.00
68758;BME280;55747;51.998;4.466;2023-02-23T05:18:27;56816.91;;;-144.48;100.00
68758;BME280;55747;51.998;4.466;2023-02-23T05:21:01;56779.72;;;-144.48;100.00
68758;BME280;55747;51.998;4.466;2023-02-23T05:26:47;56783.84;;;-144.48;100.00
68758;BME280;55747;51.998;4.466;2023-02-23T05:29:20;56734.22;;;-144.48;100.00
68758;BME280;55747;51.998;4.466;2023-02-23T05:31:51;56808.66;;;-144.48;100.00
68758;BME280;55747;51.998;4.466;2023-02-23T05:34:31;56785.91;;;-144.48;100.00
68758;BME280;55747;51.998;4.466;2023-02-23T05:37:27;56783.84;;;-144.48;100.00
68758;BME280;55747;51.998;4.466;2023-02-23T05:40:00;56783.84;;;-144.48;100.00
68758;BME280;55747;51.998;4.466;2023-02-23T05:42:42;56765.22;;;-144.48;100.00
68758;BME280;55747;51.998;4.466;2023-02-23T05:45:30;56765.22;;;-144.48;100.00
68758;BME280;55747;51.998;4.466;2023-02-23T05:47:58;56775.56;;;-144.48;100.00
68758;BME280;55747;51.998;4.466;2023-02-23T05:50:32;56785.91;;;-144.48;100.00
68758;BME280;55747;51.998;4.466;2023-02-23T05:59:12;56819.00;;;-144.48;100.00
68758;BME280;55747;51.998;4.466;2023-02-23T06:01:46;56790.03;;;-144.48;100.00
68758;BME280;55747;51.998;4.466;2023-02-23T06:04:11;56796.25;;;-144.48;100.00
68758;BME280;55747;51.998;4.466;2023-02-23T06:07:12;56761.09;;;-144.48;100.00
68758;BME280;55747;51.998;4.466;2023-02-23T06:09:40;56790.03;;;-144.48;100.00
68758;BME280;55747;51.998;4.466;2023-02-23T06:12:12;56781.78;;;-144.48;100.00
68758;BME280;55747;51.998;4.466;2023-02-23T06:14:39;56794.19;;;-144.48;100.00
68758;BME280;55747;51.998;4.466;2023-02-23T06:17:17;56779.72;;;-144.48;100.00
68758;BME280;55747;51.998;4.466;2023-02-23T06:20:00;56787.97;;;-144.48;100.00
68758;BME280;55747;51.998;4.466;2023-02-23T06:22:45;56767.31;;;-144.48;100.00
68758;BME280;55747;51.998;4.466;2023-02-23T06:25:36;56785.91;;;-144.48;100.00
68758;BME280;55747;51.998;4.466;2023-02-23T06:28:10;56763.16;;;-144.48;100.00
68758;BME280;55747;51.998;4.466;2023-02-23T06:30:50;56767.31;;;-144.48;100.00
68758;BME280;55747;51.998;4.466;2023-02-23T06:33:43;56777.63;;;-144.48;100.00
68758;BME280;55747;51.998;4.466;2023-02-23T06:36:17;56812.78;;;-144.48;100.00
68758;BME280;55747;51.998;4.466;2023-02-23T06:38:56;56785.91;;;-144.48;100.00
68758;BME280;55747;51.998;4.466;2023-02-23T06:42:09;56771.44;;;-144.48;100.00
68758;BME280;55747;51.998;4.466;2023-02-23T06:44:58;56765.22;;;-144.48;100.00
68758;BME280;55747;51.998;4.466;2023-02-23T06:47:29;56790.03;;;-144.48;100.00
68758;BME280;55747;51.998;4.466;2023-02-23T06:49:55;56752.81;;;-144.48;100.00
68758;BME280;55747;51.998;4.466;2023-02-23T06:52:37;56806.59;;;-144.48;100.00
68758;BME280;55747;51.998;4.466;2023-02-23T06:55:15;56806.59;;;-144.48;100.00
68758;BME280;55747;51.998;4.466;2023-02-23T06:57:50;56779.72;;;-144.48;100.00
68758;BME280;55747;51.998;4.466;2023-02-23T07:00:47;56750.75;;;-144.48;100.00
68758;BME280;55747;51.998;4.466;2023-02-23T07:03:23;56785.91;;;-144.48;100.00
68758;BME280;55747;51.998;4.466;2023-02-23T07:09:09;56796.25;;;-144.48;100.00
68758;BME280;55747;51.998;4.466;2023-02-23T07:11:38;56775.56;;;-144.48;100.00
68758;BME280;55747;51.998;4.466;2023-02-23T07:14:14;56785.91;;;-144.48;100.00
68758;BME280;55747;51.998;4.466;2023-02-23T07:16:54;56787.97;;;-144.48;100.00
68758;BME280;55747;51.998;4.466;2023-02-23T07:19:25;56798.31;;;-144.48;100.00
68758;BME280;55747;51.998;4.466;2023-02-23T07:21:54;56800.38;;;-144.48;100.00
68758;BME280;55747;51.998;4.466;2023-02-23T07:24:25;56756.97;;;-144.48;100.00
68758;BME280;55747;51.998;4.466;2023-02-23T07:26:57;56794.19;;;-144.48;100.00
68758;BME280;55747;51.998;4.466;2023-02-23T07:29:25;56775.56;;;-144.48;100.00
68758;BME280;55747;51.998;4.466;2023-02-23T07:31:57;56783.84;;;-144.48;100.00
68758;BME280;55747;51.998;4.466;2023-02-23T07:34:22;56816.91;;;-144.48;100.00
68758;BME280;55747;51.998;4.466;2023-02-23T07:36:48;56767.31;;;-144.48;100.00
68758;BME280;55747;51.998;4.466;2023-02-23T07:39:26;56779.72;;;-144.48;100.00
68758;BME280;55747;51.998;4.466;2023-02-23T07:41:54;56781.78;;;-144.48;100.00
68758;BME280;55747;51.998;4.466;2023-02-23T07:44:19;56783.84;;;-144.48;100.00
68758;BME280;55747;51.998;4.466;2023-02-23T07:46:47;56750.75;;;-144.48;100.00
68758;BME280;55747;51.998;4.466;2023-02-23T07:49:31;56777.63;;;-144.48;100.00
68758;BME280;55747;51.998;4.466;2023-02-23T07:55:17;56783.84;;;-144.48;100.00
68758;BME280;55747;51.998;4.466;2023-02-23T07:57:50;56777.63;;;-144.48;100.00
68758;BME280;55747;51.998;4.466;2023-02-23T08:00:22;56800.38;;;-144.48;100.00
68758;BME280;55747;51.998;4.466;2023-02-23T08:03:08;56810.72;;;-144.48;100.00
68758;BME280;55747;51.998;4.466;2023-02-23T08:06:07;56794.19;;;-144.48;100.00
68758;BME280;55747;51.998;4.466;2023-02-23T08:08:38;56802.44;;;-144.48;100.00
68758;BME280;55747;51.998;4.466;2023-02-23T08:11:21;56761.09;;;-144.48;100.00
68758;BME280;55747;51.998;4.466;2023-02-23T08:13:52;56802.44;;;-144.48;100.00
68758;BME280;55747;51.998;4.466;2023-02-23T08:16:31;56816.91;;;-144.48;100.00
68758;BME280;55747;51.998;4.466;2023-02-23T08:25:27;56783.84;;;-144.48;100.00
68758;BME280;55747;51.998;4.466;2023-02-23T08:28:02;56761.09;;;-144.48;100.00
68758;BME280;55747;51.998;4.466;2023-02-23T08:31:28;56804.50;;;-144.48;100.00
68758;BME280;55747;51.998;4.466;2023-02-23T08:40:35;56771.44;;;-144.48;100.00
68758;BME280;55747;51.998;4.466;2023-02-23T08:43:18;56771.44;;;-144.48;100.00
68758;BME280;55747;51.998;4.466;2023-02-23T08:45:58;56767.31;;;-144.48;100.00
68758;BME280;55747;51.998;4.466;2023-02-23T08:48:32;56771.44;;;-144.48;100.00
68758;BME280;55747;51.998;4.466;2023-02-23T08:51:20;56783.84;;;-144.48;100.00
68758;BME280;55747;51.998;4.466;2023-02-23T08:54:00;56773.50;;;-144.48;100.00
68758;BME280;55747;51.998;4.466;2023-02-23T08:59:38;56759.03;;;-144.48;100.00
68758;BME280;55747;51.998;4.466;2023-02-23T09:02:11;56790.03;;;-144.48;100.00
68758;BME280;55747;51.998;4.466;2023-02-23T09:04:56;56785.91;;;-144.48;100.00
68758;BME280;55747;51.998;4.466;2023-02-23T09:07:29;56765.22;;;-144.48;100.00
68758;BME280;55747;51.998;4.466;2023-02-23T09:10:00;56777.63;;;-144.48;100.00
68758;BME280;55747;51.998;4.466;2023-02-23T09:12:29;56748.69;;;-144.48;100.00
68758;BME280;55747;51.998;4.466;2023-02-23T09:15:33;56769.38;;;-144.48;100.00
68758;BME280;55747;51.998;4.466;2023-02-23T09:18:03;56792.09;;;-144.48;100.00
68758;BME280;55747;51.998;4.466;2023-02-23T09:20:31;56794.19;;;-144.48;100.00
68758;BME280;55747;51.998;4.466;2023-02-23T09:23:02;56771.44;;;-144.48;100.00
68758;BME280;55747;51.998;4.466;2023-02-23T09:25:28;56769.38;;;-144.48;100.00
68758;BME280;55747;51.998;4.466;2023-02-23T09:27:58;56759.03;;;-144.48;100.00
68758;BME280;55747;51.998;4.466;2023-02-23T09:30:25;56800.38;;;-144.48;100.00
68758;BME280;55747;51.998;4.466;2023-02-23T09:32:55;56787.97;;;-144.48;100.00
68758;BME280;55747;51.998;4.466;2023-02-23T09:35:23;56777.63;;;-144.48;100.00
68758;BME280;55747;51.998;4.466;2023-02-23T09:37:54;56781.78;;;-144.48;100.00
68758;BME280;55747;51.998;4.466;2023-02-23T09:40:27;56779.72;;;-144.48;100.00
68758;BME280;55747;51.998;4.466;2023-02-23T09:43:09;56794.19;;;-144.48;100.00
68758;BME280;55747;51.998;4.466;2023-02-23T09:45:42;56779.72;;;-144.48;100.00
68758;BME280;55747;51.998;4.466;2023-02-23T09:50:56;56756.97;;;-144.48;100.00
68758;BME280;55747;51.998;4.466;2023-02-23T09:53:43;56777.63;;;-144.48;100.00
68758;BME280;55747;51.998;4.466;2023-02-23T09:57:02;56812.78;;;-144.48;100.00
68758;BME280;55747;51.998;4.466;2023-02-23T09:59:20;56790.03;;;-144.48;100.00
68758;BME280;55747;51.998;4.466;2023-02-23T10:04:26;56754.91;;;-144.48;100.00
68758;BME280;55747;51.998;4.466;2023-02-23T10:18:56;56746.63;;;-144.48;100.00
68758;BME280;55747;51.998;4.466;2023-02-23T10:21:34;56777.63;;;-144.48;100.00
68758;BME280;55747;51.998;4.466;2023-02-23T10:24:25;56779.72;;;-144.48;100.00
68758;BME280;55747;51.998;4.466;2023-02-23T10:26:59;56777.63;;;-144.48;100.00
68758;BME280;55747;51.998;4.466;2023-02-23T10:29:33;56746.63;;;-144.48;100.00
68758;BME280;55747;51.998;4.466;2023-02-23T10:34:53;56761.09;;;-144.48;100.00
68758;BME280;55747;51.998;4.466;2023-02-23T10:37:21;56781.78;;;-144.48;100.00
68758;BME280;55747;51.998;4.466;2023-02-23T10:39:51;56775.56;;;-144.48;100.00
68758;BME280;55747;51.998;4.466;2023-02-23T10:42:23;56752.81;;;-144.48;100.00
68758;BME280;55747;51.998;4.466;2023-02-23T10:44:53;56761.09;;;-144.48;100.00
68758;BME280;55747;51.998;4.466;2023-02-23T10:47:22;56773.50;;;-144.48;100.00
68758;BME280;55747;51.998;4.466;2023-02-23T10:49:52;56785.91;;;-144.48;100.00
68758;BME280;55747;51.998;4.466;2023-02-23T10:52:20;56771.44;;;-144.48;100.00
68758;BME280;55747;51.998;4.466;2023-02-23T10:54:49;56785.91;;;-144.48;100.00
68758;BME280;55747;51.998;4.466;2023-02-23T11:02:52;56754.91;;;-144.48;100.00
68758;BME280;55747;51.998;4.466;2023-02-23T11:05:39;56798.31;;;-144.48;100.00
68758;BME280;55747;51.998;4.466;2023-02-23T11:08:34;56777.63;;;-144.48;100.00
68758;BME280;55747;51.998;4.466;2023-02-23T11:11:17;56738.34;;;-144.48;100.00
68758;BME280;55747;51.998;4.466;2023-02-23T11:13:53;56742.50;;;-144.48;100.00
68758;BME280;55747;51.998;4.466;2023-02-23T11:16:29;56750.75;;;-144.48;100.00
68758;BME280;55747;51.998;4.466;2023-02-23T11:19:06;56752.81;;;-144.48;100.00
68758;BME280;55747;51.998;4.466;2023-02-23T11:21:49;56773.50;;;-144.48;100.00
68758;BME280;55747;51.998;4.466;2023-02-23T11:24:27;56775.56;;;-144.48;100.00
68758;BME280;55747;51.998;4.466;2023-02-23T11:26:59;56748.69;;;-144.48;100.00
68758;BME280;55747;51.998;4.466;2023-02-23T11:29:39;56775.56;;;-144.48;100.00
68758;BME280;55747;51.998;4.466;2023-02-23T11:34:47;56783.84;;;-144.48;100.00
68758;BME280;55747;51.998;4.466;2023-02-23T11:37:32;56787.97;;;-144.48;100.00
68758;BME280;55747;51.998;4.466;2023-02-23T11:40:16;56761.09;;;-144.48;100.00
68758;BME280;55747;51.998;4.466;2023-02-23T11:43:08;56738.34;;;-144.48;100.00
68758;BME280;55747;51.998;4.466;2023-02-23T11:45:58;56721.81;;;-144.48;100.00
68758;BME280;55747;51.998;4.466;2023-02-23T11:48:36;56771.44;;;-144.48;100.00
68758;BME280;55747;51.998;4.466;2023-02-23T11:51:29;56767.31;;;-144.48;100.00
68758;BME280;55747;51.998;4.466;2023-02-23T11:53:56;56752.81;;;-144.48;100.00
68758;BME280;55747;51.998;4.466;2023-02-23T11:56:25;56750.75;;;-144.48;100.00
68758;BME280;55747;51.998;4.466;2023-02-23T11:59:06;56790.03;;;-144.48;100.00
68758;BME280;55747;51.998;4.466;2023-02-23T12:01:42;56783.84;;;-144.48;100.00
68758;BME280;55747;51.998;4.466;2023-02-23T12:04:25;56728.00;;;-144.48;100.00
68758;BME280;55747;51.998;4.466;2023-02-23T12:07:17;56777.63;;;-144.48;100.00
68758;BME280;55747;51.998;4.466;2023-02-23T12:09:44;56705.28;;;-144.48;100.00
68758;BME280;55747;51.998;4.466;2023-02-23T12:12:19;56765.22;;;-144.48;100.00
68758;BME280;55747;51.998;4.466;2023-02-23T12:14:58;56707.34;;;-144.48;100.00
68758;BME280;55747;51.998;4.466;2023-02-23T12:17:30;56777.63;;;-144.48;100.00
68758;BME280;55747;51.998;4.466;2023-02-23T12:20:15;56765.22;;;-144.48;100.00
68758;BME280;55747;51.998;4.466;2023-02-23T12:22:49;56783.84;;;-144.48;100.00
68758;BME280;55747;51.998;4.466;2023-02-23T12:28:12;56765.22;;;-144.48;100.00
68758;BME280;55747;51.998;4.466;2023-02-23T12:31:05;56738.34;;;-144.48;100.00
68758;BME280;55747;51.998;4.466;2023-02-23T12:33:46;56730.09;;;-144.48;100.00
68758;BME280;55747;51.998;4.466;2023-02-23T12:39:32;56773.50;;;-144.48;98.19
68758;BME280;55747;51.998;4.466;2023-02-23T12:42:41;56740.41;;;-144.48;95.54
68758;BME280;55747;51.998;4.466;2023-02-23T12:45:00;56750.75;;;-144.48;94.65
68758;BME280;55747;51.998;4.466;2023-02-23T12:47:39;56756.97;;;-144.48;94.35
68758;BME280;55747;51.998;4.466;2023-02-23T12:50:22;56763.16;;;-144.48;95.55
68758;BME280;55747;51.998;4.466;2023-02-23T12:52:57;56754.91;;;-144.48;96.53
68758;BME280;55747;51.998;4.466;2023-02-23T12:55:39;56740.41;;;-144.48;98.70
68758;BME280;55747;51.998;4.466;2023-02-23T13:06:19;56744.56;;;-144.48;97.57
68758;BME280;55747;51.998;4.466;2023-02-23T13:14:44;56734.22;;;-144.48;99.50
68758;BME280;55747;51.998;4.466;2023-02-23T13:25:51;56738.34;;;-144.48;100.00
68758;BME280;55747;51.998;4.466;2023-02-23T13:28:35;56756.97;;;-144.48;100.00
68758;BME280;55747;51.998;4.466;2023-02-23T13:31:25;56792.09;;;-144.48;100.00
68758;BME280;55747;51.998;4.466;2023-02-23T13:33:58;56767.31;;;-144.48;100.00
68758;BME280;55747;51.998;4.466;2023-02-23T13:36:28;56732.16;;;-144.48;100.00
68758;BME280;55747;51.998;4.466;2023-02-23T13:44:49;56748.69;;;-144.48;100.00
68758;BME280;55747;51.998;4.466;2023-02-23T13:50:22;56754.91;;;-144.48;100.00
68758;BME280;55747;51.998;4.466;2023-02-23T13:52:53;56715.59;;;-144.48;100.00
68758;BME280;55747;51.998;4.466;2023-02-23T13:55:31;56728.00;;;-144.48;100.00
68758;BME280;55747;51.998;4.466;2023-02-23T13:58:29;56705.28;;;-144.48;100.00
68758;BME280;55747;51.998;4.466;2023-02-23T14:01:15;56723.88;;;-144.48;100.00
68758;BME280;55747;51.998;4.466;2023-02-23T14:04:04;56738.34;;;-144.48;100.00
68758;BME280;55747;51.998;4.466;2023-02-23T14:06:51;56783.84;;;-144.48;100.00
68758;BME280;55747;51.998;4.466;2023-02-23T14:09:40;56802.44;;;-144.48;100.00
68758;BME280;55747;51.998;4.466;2023-02-23T14:12:15;56771.44;;;-144.48;100.00
68758;BME280;55747;51.998;4.466;2023-02-23T14:14:47;56750.75;;;-144.48;100.00
68758;BME280;55747;51.998;4.466;2023-02-23T14:19:43;56759.03;;;-144.48;100.00
68758;BME280;55747;51.998;4.466;2023-02-23T14:22:24;56728.00;;;-144.48;100.00
68758;BME280;55747;51.998;4.466;2023-02-23T14:28:25;56732.16;;;-144.48;100.00
68758;BME280;55747;51.998;4.466;2023-02-23T14:31:18;56715.59;;;-144.48;100.00
68758;BME280;55747;51.998;4.466;2023-02-23T14:39:00;56752.81;;;-144.48;100.00
68758;BME280;55747;51.998;4.466;2023-02-23T14:41:31;56761.09;;;-144.48;100.00
68758;BME280;55747;51.998;4.466;2023-02-23T14:44:13;56752.81;;;-144.48;100.00
68758;BME280;55747;51.998;4.466;2023-02-23T14:46:54;56752.81;;;-144.48;100.00
68758;BME280;55747;51.998;4.466;2023-02-23T14:49:26;56732.16;;;-144.48;100.00
68758;BME280;55747;51.998;4.466;2023-02-23T14:51:56;56744.56;;;-144.48;100.00
68758;BME280;55747;51.998;4.466;2023-02-23T14:54:33;56750.75;;;-144.48;100.00
68758;BME280;55747;51.998;4.466;2023-02-23T14:57:13;56721.81;;;-144.48;100.00
68758;BME280;55747;51.998;4.466;2023-02-23T14:59:50;56732.16;;;-144.48;100.00
68758;BME280;55747;51.998;4.466;2023-02-23T15:02:23;56723.88;;;-144.48;100.00
68758;BME280;55747;51.998;4.466;2023-02-23T15:04:49;56713.53;;;-144.48;100.00
68758;BME280;55747;51.998;4.466;2023-02-23T15:07:39;56779.72;;;-144.48;100.00
68758;BME280;55747;51.998;4.466;2023-02-23T15:10:09;56748.69;;;-144.48;100.00
68758;BME280;55747;51.998;4.466;2023-02-23T15:12:38;56730.09;;;-144.48;100.00
68758;BME280;55747;51.998;4.466;2023-02-23T15:15:15;56767.31;;;-144.48;100.00
68758;BME280;55747;51.998;4.466;2023-02-23T15:17:50;56779.72;;;-144.48;100.00
68758;BME280;55747;51.998;4.466;2023-02-23T15:20:20;56740.41;;;-144.48;100.00
68758;BME280;55747;51.998;4.466;2023-02-23T15:22:53;56771.44;;;-144.48;100.00
68758;BME280;55747;51.998;4.466;2023-02-23T15:25:38;56732.16;;;-144.48;100.00
68758;BME280;55747;51.998;4.466;2023-02-23T15:28:23;56717.69;;;-144.48;100.00
68758;BME280;55747;51.998;4.466;2023-02-23T15:30:55;56761.09;;;-144.48;100.00
68758;BME280;55747;51.998;4.466;2023-02-23T15:33:23;56765.22;;;-144.48;100.00
68758;BME280;55747;51.998;4.466;2023-02-23T15:36:15;56742.50;;;-144.48;100.00
68758;BME280;55747;51.998;4.466;2023-02-23T15:38:49;56754.91;;;-144.48;100.00
68758;BME280;55747;51.998;4.466;2023-02-23T15:44:19;56744.56;;;-144.48;100.00
68758;BME280;55747;51.998;4.466;2023-02-23T15:47:13;56752.81;;;-144.48;100.00
68758;BME280;55747;51.998;4.466;2023-02-23T15:49:38;56744.56;;;-144.48;100.00
68758;BME280;55747;51.998;4.466;2023-02-23T15:52:12;56734.22;;;-144.48;100.00
68758;BME280;55747;51.998;4.466;2023-02-23T15:55:22;56709.41;;;-144.48;100.00
68758;BME280;55747;51.998;4.466;2023-02-23T16:04:26;56740.41;;;-144.48;100.00
68758;BME280;55747;51.998;4.466;2023-02-23T17:24:11;56771.44;;;-144.48;100.00
68758;BME280;55747;51.998;4.466;2023-02-23T18:03:16;56734.22;;;-144.48;100.00
68758;BME280;55747;51.998;4.466;2023-02-23T18:13:35;56787.97;;;-144.48;100.00
68758;BME280;55747;51.998;4.466;2023-02-23T18:30:06;56810.72;;;-144.48;100.00
68758;BME280;55747;51.998;4.466;2023-02-23T18:36:44;56773.50;;;-144.48;100.00
68758;BME280;55747;51.998;4.466;2023-02-23T19:07:16;56752.81;;;-144.48;100.00
68758;BME280;55747;51.998;4.466;2023-02-23T19:10:00;56750.75;;;-144.48;100.00
68758;BME280;55747;51.998;4.466;2023-02-23T19:13:39;56769.38;;;-144.48;100.00
68758;BME280;55747;51.998;4.466;2023-02-23T19:17:24;56783.84;;;-144.48;100.00
68758;BME280;55747;51.998;4.466;2023-02-23T19:19:57;56792.09;;;-144.48;100.00
68758;BME280;55747;51.998;4.466;2023-02-23T19:22:41;56769.38;;;-144.48;100.00
68758;BME280;55747;51.998;4.466;2023-02-23T19:32:36;56779.72;;;-144.48;100.00